Time;durP1;ratioP1;P1;durP2;ratioP2;P2;SDS_P1;SDS_P2;PMS_P1;PMS_P2;Temp;Humidity;BMP_temperature;BMP_pressure;BME280_temperature;BME280_humidity;BME280_pressure;Samples;Min_cycle;Max_cycle;Signal;HPM_P1;HPM_P2
2022/04/28 00:01:31;;;;;;;19.25;9.10;;;;;;;3.51;100.00;102788.44;5325688;27;20020;-75
2022/04/28 00:04:03;;;;;;;13.20;7.63;;;;;;;3.43;100.00;102792.25;5322179;27;20038;-75
2022/04/28 00:06:34;;;;;;;15.27;7.95;;;;;;;3.55;100.00;102792.72;5318209;27;20028;-75
2022/04/28 00:09:06;;;;;;;13.57;8.38;;;;;;;3.74;100.00;102802.69;5320841;27;20036;-75
2022/04/28 00:11:37;;;;;;;15.90;9.07;;;;;;;3.82;100.00;102799.78;5324767;27;20036;-75
2022/04/28 00:14:08;;;;;;;16.80;8.70;;;;;;;3.74;100.00;102810.59;5323133;27;20116;-75
2022/04/28 00:16:40;;;;;;;15.32;8.52;;;;;;;3.69;100.00;102805.47;5326802;27;20032;-75
2022/04/28 00:19:11;;;;;;;12.13;9.25;;;;;;;3.79;100.00;102811.31;5324785;27;20024;-75
2022/04/28 00:21:43;;;;;;;18.05;8.75;;;;;;;3.81;100.00;102809.47;5326996;27;20028;-75
2022/04/28 00:24:14;;;;;;;13.25;8.15;;;;;;;3.89;100.00;102807.47;5323033;27;20032;-75
2022/04/28 00:26:45;;;;;;;20.50;9.15;;;;;;;3.89;100.00;102814.50;5324119;27;20055;-75
2022/04/28 00:29:16;;;;;;;16.02;9.68;;;;;;;3.92;100.00;102804.69;5324462;27;20456;-75
2022/04/28 00:31:48;;;;;;;15.25;8.80;;;;;;;3.66;100.00;102812.63;5317563;27;21334;-75
2022/04/28 00:34:19;;;;;;;13.32;8.32;;;;;;;3.75;100.00;102810.56;5319269;27;20063;-75
2022/04/28 00:36:51;;;;;;;18.73;9.38;;;;;;;3.70;100.00;102814.22;5319716;27;20036;-75
2022/04/28 00:39:22;;;;;;;19.55;9.95;;;;;;;3.59;100.00;102798.75;5321093;27;20043;-75
2022/04/28 00:41:53;;;;;;;20.35;9.45;;;;;;;3.35;100.00;102813.59;5323000;27;20033;-75
2022/04/28 00:44:24;;;;;;;17.00;9.80;;;;;;;3.17;100.00;102797.44;5322406;27;20035;-75
2022/04/28 00:46:56;;;;;;;18.45;9.38;;;;;;;3.32;100.00;102797.84;5320043;27;20070;-75
2022/04/28 00:52:17;;;;;;;13.48;8.93;;;;;;;3.02;100.00;102796.09;5317081;27;20037;-75
2022/04/28 00:54:51;;;;;;;15.80;9.00;;;;;;;2.92;100.00;102794.63;5326456;27;20077;-75
2022/04/28 00:57:24;;;;;;;11.05;8.70;;;;;;;2.80;100.00;102800.28;5318380;27;20473;-75
2022/04/28 00:59:55;;;;;;;15.35;8.95;;;;;;;2.84;100.00;102796.66;5320441;27;20495;-75
2022/04/28 01:02:26;;;;;;;19.23;10.52;;;;;;;2.73;100.00;102785.53;5317961;27;20192;-75
2022/04/28 01:04:57;;;;;;;14.80;8.68;;;;;;;2.75;100.00;102789.00;5316424;27;20024;-75
2022/04/28 01:07:29;;;;;;;16.15;9.15;;;;;;;2.78;100.00;102794.19;5325324;27;20031;-75
2022/04/28 01:10:00;;;;;;;13.73;8.52;;;;;;;2.90;100.00;102790.34;5323874;27;20025;-75
2022/04/28 01:12:31;;;;;;;19.92;10.88;;;;;;;3.14;100.00;102792.25;5324401;27;20103;-75
2022/04/28 01:15:05;;;;;;;17.08;9.38;;;;;;;3.22;100.00;102799.91;5319831;27;20362;-75
2022/04/28 01:17:36;;;;;;;18.67;9.73;;;;;;;3.40;100.00;102799.34;5323910;27;20482;-75
2022/04/28 01:20:08;;;;;;;22.42;11.70;;;;;;;3.31;100.00;102801.41;5316051;27;20043;-75
2022/04/28 01:22:41;;;;;;;21.05;10.48;;;;;;;3.40;100.00;102807.25;5325191;27;20020;-75
2022/04/28 01:25:13;;;;;;;18.27;10.45;;;;;;;3.45;100.00;102803.59;5319815;27;20154;-75
2022/04/28 01:27:45;;;;;;;19.00;10.05;;;;;;;3.55;100.00;102803.25;5316160;27;21605;-75
2022/04/28 01:30:16;;;;;;;15.85;9.90;;;;;;;3.47;100.00;102807.94;5321876;27;20028;-75
2022/04/28 01:32:47;;;;;;;20.65;10.85;;;;;;;3.22;100.00;102800.75;5323026;27;20052;-75
2022/04/28 01:35:19;;;;;;;15.32;10.23;;;;;;;3.22;100.00;102807.81;5327653;27;20028;-75
2022/04/28 01:37:52;;;;;;;21.48;11.93;;;;;;;3.11;100.00;102809.94;5325598;27;20040;-75
2022/04/28 01:40:23;;;;;;;19.65;10.60;;;;;;;3.08;100.00;102805.59;5325053;27;20047;-74
2022/04/28 01:42:55;;;;;;;15.60;8.57;;;;;;;3.17;100.00;102818.53;5324986;27;20052;-75
2022/04/28 01:45:26;;;;;;;14.52;9.75;;;;;;;2.91;100.00;102805.22;5327213;27;20101;-75
2022/04/28 01:47:57;;;;;;;16.63;10.20;;;;;;;2.87;100.00;102801.81;5325889;27;20032;-74
2022/04/28 01:50:28;;;;;;;16.45;10.70;;;;;;;2.92;100.00;102802.53;5318809;27;35292;-74
2022/04/28 01:55:50;;;;;;;20.42;11.68;;;;;;;2.79;100.00;102799.41;5328277;27;20404;-75
2022/04/28 01:58:21;;;;;;;18.60;10.43;;;;;;;2.72;100.00;102807.53;5325241;27;20032;-75
2022/04/28 02:00:52;;;;;;;21.63;10.82;;;;;;;2.65;100.00;102804.22;5326633;27;20026;-75
2022/04/28 02:03:23;;;;;;;17.23;9.68;;;;;;;2.66;100.00;102805.94;5324413;27;20029;-74
2022/04/28 02:05:55;;;;;;;21.40;11.80;;;;;;;2.47;100.00;102805.56;5323134;27;40366;-75
2022/04/28 02:08:26;;;;;;;19.45;11.02;;;;;;;2.69;100.00;102810.25;5322195;27;20084;-74
2022/04/28 02:10:58;;;;;;;13.32;8.95;;;;;;;2.68;100.00;102809.38;5323144;27;20025;-74
2022/04/28 02:13:29;;;;;;;22.73;11.07;;;;;;;2.58;100.00;102811.44;5322376;27;20153;-74
2022/04/28 02:16:00;;;;;;;21.67;9.93;;;;;;;2.70;100.00;102804.06;5321351;27;20071;-74
2022/04/28 02:18:31;;;;;;;16.05;9.93;;;;;;;2.62;100.00;102804.28;5326072;27;20374;-74
2022/04/28 02:21:03;;;;;;;20.73;11.40;;;;;;;2.75;100.00;102817.97;5315272;27;20031;-74
2022/04/28 02:23:34;;;;;;;14.40;9.77;;;;;;;2.82;100.00;102811.63;5323076;27;20469;-74
2022/04/28 02:26:05;;;;;;;21.02;10.23;;;;;;;3.01;100.00;102812.81;5323226;27;20075;-74
2022/04/28 02:28:36;;;;;;;25.02;11.95;;;;;;;2.81;100.00;102809.91;5322428;27;20377;-74
2022/04/28 02:31:08;;;;;;;22.73;12.13;;;;;;;2.87;100.00;102809.72;5321220;27;20027;-74
2022/04/28 02:33:39;;;;;;;25.13;12.52;;;;;;;3.00;100.00;102808.47;5321537;27;20024;-74
2022/04/28 02:36:12;;;;;;;19.50;11.77;;;;;;;2.89;100.00;102807.91;5326039;27;20039;-74
2022/04/28 02:38:44;;;;;;;20.20;10.35;;;;;;;2.93;100.00;102803.41;5320362;27;20025;-74
2022/04/28 02:41:20;;;;;;;26.63;13.13;;;;;;;2.68;100.00;102806.75;5329069;27;20031;-74
2022/04/28 02:43:52;;;;;;;16.05;10.05;;;;;;;2.95;100.00;102810.38;5311064;27;20063;-74
2022/04/28 02:46:23;;;;;;;21.17;12.68;;;;;;;2.84;100.00;102809.84;5327076;27;20576;-74
2022/04/28 02:48:54;;;;;;;20.30;11.77;;;;;;;2.57;100.00;102803.56;5323330;27;20472;-74
2022/04/28 02:51:26;;;;;;;23.77;11.98;;;;;;;2.63;100.00;102792.88;5319656;27;20032;-75
2022/04/28 02:53:57;;;;;;;18.27;11.02;;;;;;;2.62;100.00;102802.50;5321254;27;20039;-75
2022/04/28 02:56:28;;;;;;;17.65;11.38;;;;;;;2.60;100.00;102800.84;5320857;27;20040;-74
2022/04/28 02:58:59;;;;;;;17.10;11.18;;;;;;;2.54;100.00;102808.91;5321213;27;20472;-74
2022/04/28 03:01:31;;;;;;;21.10;12.32;;;;;;;2.69;100.00;102797.94;5323692;27;20081;-75
2022/04/28 03:04:03;;;;;;;24.75;12.48;;;;;;;2.78;100.00;102810.00;5320199;27;20043;-74
2022/04/28 03:12:14;;;;;;;17.35;11.25;;;;;;;2.87;100.00;102806.22;5321798;27;20032;-74
2022/04/28 03:14:45;;;;;;;17.35;11.15;;;;;;;2.90;100.00;102812.28;5316565;27;20430;-74
2022/04/28 03:17:17;;;;;;;25.95;14.02;;;;;;;2.99;100.00;102808.50;5322422;27;20531;-74
2022/04/28 03:19:48;;;;;;;19.52;12.88;;;;;;;3.02;100.00;102817.19;5330090;27;20031;-74
2022/04/28 03:22:20;;;;;;;18.70;11.88;;;;;;;3.02;100.00;102808.44;5315329;27;20454;-74
2022/04/28 03:24:52;;;;;;;23.38;12.77;;;;;;;3.09;100.00;102802.06;5316436;27;20017;-75
2022/04/28 03:27:23;;;;;;;18.88;11.40;;;;;;;3.04;100.00;102801.31;5322614;27;20553;-74
2022/04/28 03:29:54;;;;;;;14.45;10.77;;;;;;;3.24;100.00;102805.13;5326900;27;20028;-75
2022/04/28 03:32:25;;;;;;;20.45;13.05;;;;;;;3.06;100.00;102803.94;5321122;27;20487;-75
2022/04/28 03:34:57;;;;;;;21.75;12.48;;;;;;;3.11;100.00;102809.94;5328758;27;20385;-75
2022/04/28 03:37:28;;;;;;;26.23;13.65;;;;;;;3.16;100.00;102811.50;5315770;27;20409;-75
2022/04/28 03:39:59;;;;;;;26.10;13.50;;;;;;;3.07;100.00;102814.44;5311654;27;20386;-75
2022/04/28 03:42:30;;;;;;;23.27;11.32;;;;;;;3.11;100.00;102813.41;5307724;27;20013;-75
2022/04/28 03:45:02;;;;;;;20.48;11.98;;;;;;;3.19;100.00;102811.44;5321320;27;20074;-75
2022/04/28 03:47:35;;;;;;;27.10;14.40;;;;;;;3.14;100.00;102810.69;5307982;27;20028;-75
2022/04/28 03:50:08;;;;;;;27.55;14.15;;;;;;;3.20;100.00;102807.84;5307772;27;20059;-75
2022/04/28 03:52:40;;;;;;;28.77;13.68;;;;;;;3.21;100.00;102812.22;5312712;27;20457;-75
2022/04/28 03:55:12;;;;;;;22.75;13.50;;;;;;;3.14;100.00;102815.13;5303525;27;20032;-75
2022/04/28 03:57:43;;;;;;;21.63;12.70;;;;;;;3.11;100.00;102826.59;5308288;27;20040;-75
2022/04/28 04:00:15;;;;;;;24.58;13.77;;;;;;;2.95;100.00;102823.56;5306120;27;20393;-75
2022/04/28 04:02:47;;;;;;;22.55;13.20;;;;;;;2.95;100.00;102825.34;5310428;27;20033;-75
2022/04/28 04:05:18;;;;;;;20.02;13.25;;;;;;;2.83;100.00;102821.28;5310148;27;20028;-75
2022/04/28 04:07:49;;;;;;;23.92;13.32;;;;;;;2.68;100.00;102817.28;5305250;27;20016;-75
2022/04/28 04:10:21;;;;;;;27.38;13.60;;;;;;;2.72;100.00;102824.22;5312913;27;20065;-75
2022/04/28 04:12:52;;;;;;;25.58;12.35;;;;;;;2.59;100.00;102817.53;5306815;27;20363;-75
2022/04/28 04:15:23;;;;;;;22.48;13.27;;;;;;;2.55;100.00;102821.19;5304947;27;20373;-75
2022/04/28 04:17:54;;;;;;;20.15;12.93;;;;;;;2.56;100.00;102822.91;5310537;27;20024;-75
2022/04/28 04:20:27;;;;;;;19.02;12.93;;;;;;;2.52;100.00;102824.75;5311708;27;20123;-75
2022/04/28 04:22:59;;;;;;;24.67;13.57;;;;;;;2.52;100.00;102827.38;5311385;27;20016;-75
2022/04/28 04:25:30;;;;;;;25.33;13.05;;;;;;;2.53;100.00;102829.13;5311687;27;20434;-75
2022/04/28 04:28:01;;;;;;;23.48;13.65;;;;;;;2.79;100.00;102828.41;5309799;27;20055;-75
2022/04/28 04:33:22;;;;;;;19.75;12.43;;;;;;;2.92;100.00;102828.91;5308537;27;20028;-75
2022/04/28 04:35:54;;;;;;;25.15;14.50;;;;;;;3.17;100.00;102838.72;5309601;27;20044;-75
2022/04/28 04:38:25;;;;;;;22.20;15.63;;;;;;;3.26;100.00;102835.84;5308122;27;20086;-75
2022/04/28 04:40:56;;;;;;;26.45;15.63;;;;;;;3.48;100.00;102835.19;5320699;27;20069;-75
2022/04/28 04:43:28;;;;;;;28.98;15.77;;;;;;;3.46;100.00;102842.28;5308787;27;20111;-75
2022/04/28 04:45:59;;;;;;;28.38;16.77;;;;;;;3.65;100.00;102847.84;5307733;27;20094;-75
2022/04/28 04:48:31;;;;;;;30.92;17.15;;;;;;;3.64;100.00;102843.47;5312064;27;20028;-75
2022/04/28 04:51:02;;;;;;;26.80;14.30;;;;;;;3.80;100.00;102849.97;5312813;27;20027;-75
2022/04/28 04:53:33;;;;;;;22.48;15.35;;;;;;;3.84;100.00;102848.09;5307304;27;20029;-74
2022/04/28 04:56:05;;;;;;;23.67;16.60;;;;;;;3.80;100.00;102855.25;5327197;27;20043;-74
2022/04/28 04:58:36;;;;;;;23.73;15.98;;;;;;;3.97;100.00;102857.38;5304751;27;20028;-74
2022/04/28 05:01:08;;;;;;;25.27;16.73;;;;;;;3.97;100.00;102860.00;5306577;27;20070;-75
2022/04/28 05:03:41;;;;;;;23.25;15.85;;;;;;;3.97;100.00;102862.66;5313120;27;20036;-74
2022/04/28 05:06:12;;;;;;;27.70;15.15;;;;;;;4.16;100.00;102866.41;5304705;27;20090;-74
2022/04/28 05:08:44;;;;;;;24.55;16.63;;;;;;;3.99;100.00;102863.44;5308371;27;20063;-74
2022/04/28 05:11:16;;;;;;;29.77;16.77;;;;;;;3.89;100.00;102864.66;5305484;27;20024;-74
2022/04/28 05:13:47;;;;;;;25.60;16.73;;;;;;;3.95;100.00;102872.41;5311251;27;20024;-74
2022/04/28 05:16:18;;;;;;;24.08;14.63;;;;;;;4.13;100.00;102877.06;5309416;27;20097;-74
2022/04/28 05:18:50;;;;;;;25.33;15.15;;;;;;;4.27;100.00;102879.25;5313642;27;20111;-74
2022/04/28 05:21:21;;;;;;;25.33;14.63;;;;;;;4.43;100.00;102889.31;5323468;27;20024;-74
2022/04/28 05:23:52;;;;;;;20.38;13.50;;;;;;;4.70;100.00;102884.84;5324279;28;20020;-75
2022/04/28 05:26:24;;;;;;;26.40;14.82;;;;;;;4.92;100.00;102882.28;5320900;28;20128;-75
2022/04/28 05:28:56;;;;;;;21.65;13.63;;;;;;;5.15;100.00;102884.06;5289822;28;20053;-75
2022/04/28 05:31:27;;;;;;;26.05;13.27;;;;;;;5.27;100.00;102878.31;5280903;28;20486;-75
2022/04/28 05:33:59;;;;;;;21.98;11.40;;;;;;;5.44;100.00;102872.38;5281235;28;20522;-75
2022/04/28 05:36:30;;;;;;;27.45;12.55;;;;;;;5.77;100.00;102885.22;5280618;28;20401;-75
2022/04/28 05:39:02;;;;;;;17.83;11.65;;;;;;;6.03;100.00;102881.56;5295992;28;20147;-75
2022/04/28 05:41:37;;;;;;;20.00;11.85;;;;;;;6.17;100.00;102882.75;5297475;28;20036;-75
2022/04/28 05:46:59;;;;;;;24.75;11.38;;;;;;;6.81;100.00;102887.09;5282157;28;20025;-75
2022/04/28 05:49:31;;;;;;;22.05;11.70;;;;;;;7.03;100.00;102892.31;5284453;28;20040;-75
2022/04/28 05:52:03;;;;;;;16.92;10.35;;;;;;;7.27;100.00;102889.47;5283897;28;20133;-75
2022/04/28 05:54:36;;;;;;;19.48;11.38;;;;;;;7.44;100.00;102896.66;5278905;28;20032;-75
2022/04/28 05:57:07;;;;;;;19.15;10.35;;;;;;;7.76;100.00;102890.66;5281684;28;20394;-75
2022/04/28 05:59:39;;;;;;;23.05;10.63;;;;;;;7.98;100.00;102894.06;5280015;28;20021;-75
2022/04/28 06:02:11;;;;;;;19.50;10.15;;;;;;;8.36;100.00;102900.13;5290712;28;20020;-75
2022/04/28 06:04:42;;;;;;;16.27;10.25;;;;;;;8.44;100.00;102899.78;5267781;28;20098;-75
2022/04/28 06:07:13;;;;;;;17.58;9.68;;;;;;;8.63;100.00;102910.34;5281680;28;20045;-75
2022/04/28 06:09:46;;;;;;;24.08;10.88;;;;;;;8.76;100.00;102908.75;5280372;28;20029;-75
2022/04/28 06:12:17;;;;;;;22.77;10.02;;;;;;;8.96;100.00;102906.84;5297494;28;20488;-76
2022/04/28 06:14:49;;;;;;;17.95;11.32;;;;;;;9.67;100.00;102911.84;5301718;28;20708;-75
2022/04/28 06:17:21;;;;;;;14.18;9.18;;;;;;;9.86;100.00;102910.81;5297014;28;20033;-75
2022/04/28 06:19:52;;;;;;;15.95;8.88;;;;;;;9.83;100.00;102918.03;5288023;28;20029;-75
2022/04/28 06:22:24;;;;;;;14.15;9.43;;;;;;;10.56;100.00;102920.06;5288495;28;20436;-75
2022/04/28 06:24:56;;;;;;;18.63;9.65;;;;;;;10.55;100.00;102925.47;5303946;28;20028;-75
2022/04/28 06:27:28;;;;;;;17.52;8.45;;;;;;;10.92;100.00;102916.13;5303949;28;20039;-75
2022/04/28 06:30:00;;;;;;;14.45;8.80;;;;;;;11.37;100.00;102918.69;5305900;28;20035;-75
2022/04/28 06:32:31;;;;;;;13.63;9.07;;;;;;;11.52;100.00;102919.53;5322298;28;20021;-75
2022/04/28 06:35:04;;;;;;;14.40;8.73;;;;;;;11.59;100.00;102928.88;5305210;28;20070;-75
2022/04/28 06:37:35;;;;;;;22.38;9.30;;;;;;;11.61;100.00;102926.97;5321529;27;20033;-75
2022/04/28 06:40:07;;;;;;;16.02;9.25;;;;;;;11.74;100.00;102929.69;5306187;28;20043;-75
2022/04/28 06:42:43;;;;;;;15.10;8.13;;;;;;;11.81;100.00;102919.47;5306186;28;20048;-75
2022/04/28 06:45:15;;;;;;;16.33;8.73;;;;;;;12.33;100.00;102929.44;5305878;28;20020;-75
2022/04/28 06:47:46;;;;;;;18.65;8.45;;;;;;;12.22;100.00;102922.13;5306153;28;20300;-75
2022/04/28 06:50:17;;;;;;;16.38;8.57;;;;;;;12.82;100.00;102938.63;5301806;28;20452;-75
2022/04/28 06:52:49;;;;;;;13.25;8.30;;;;;;;12.73;100.00;102936.56;5300105;28;20044;-75
2022/04/28 06:55:20;;;;;;;15.70;9.45;;;;;;;13.20;100.00;102930.56;5283568;28;20109;-75
2022/04/28 06:57:51;;;;;;;16.25;8.25;;;;;;;13.44;100.00;102937.84;5284045;28;20017;-76
2022/04/28 07:00:22;;;;;;;17.35;8.18;;;;;;;13.91;100.00;102938.03;5293673;28;20024;-76
2022/04/28 07:02:54;;;;;;;16.40;8.00;;;;;;;14.16;100.00;102937.94;5306277;28;20025;-76
2022/04/28 07:05:25;;;;;;;16.17;7.70;;;;;;;14.62;100.00;102940.81;5304928;28;35686;-76
2022/04/28 07:07:56;;;;;;;15.68;7.70;;;;;;;14.84;100.00;102948.06;5321519;28;20021;-76
2022/04/28 07:10:27;;;;;;;14.35;7.32;;;;;;;15.34;97.00;102955.78;5305773;28;20027;-76
2022/04/28 07:12:59;;;;;;;21.10;7.88;;;;;;;15.62;93.47;102946.34;5305275;28;20485;-76
2022/04/28 07:15:30;;;;;;;15.30;7.57;;;;;;;15.86;93.16;102954.31;5305531;28;20429;-80
2022/04/28 07:18:03;;;;;;;16.13;6.75;;;;;;;16.36;84.97;102951.94;5306076;28;20703;-76
2022/04/28 07:20:35;;;;;;;14.95;8.13;;;;;;;16.52;81.09;102961.41;5305484;28;20050;-75
2022/04/28 07:23:07;;;;;;;14.95;7.93;;;;;;;16.84;76.17;102968.63;5305725;28;20037;-76
2022/04/28 07:25:39;;;;;;;12.43;7.60;;;;;;;16.49;67.57;102964.38;5305236;28;20028;-75
2022/04/28 07:28:11;;;;;;;15.25;7.32;;;;;;;17.21;63.00;102968.97;5304158;28;20470;-76
2022/04/28 07:30:42;;;;;;;13.73;7.10;;;;;;;17.25;60.67;102970.41;5305351;28;20127;-76
2022/04/28 07:33:13;;;;;;;19.75;7.60;;;;;;;17.95;60.11;102973.19;5305335;28;20048;-76
2022/04/28 07:35:45;;;;;;;12.10;6.75;;;;;;;17.62;56.86;102975.25;5305463;28;20039;-76
2022/04/28 07:38:16;;;;;;;15.65;7.05;;;;;;;18.55;55.84;102981.22;5305194;28;20013;-77
2022/04/28 07:40:48;;;;;;;14.93;6.80;;;;;;;18.83;53.67;102979.50;5304527;28;20016;-76
2022/04/28 07:43:20;;;;;;;14.73;7.22;;;;;;;18.55;51.30;102977.63;5283386;28;20175;-76
2022/04/28 07:45:52;;;;;;;15.90;6.90;;;;;;;19.19;49.75;102981.53;5319292;28;20024;-76
2022/04/28 07:48:23;;;;;;;13.88;7.32;;;;;;;20.17;46.21;102984.59;5304986;28;20116;-77
2022/04/28 07:50:54;;;;;;;15.02;6.95;;;;;;;20.86;45.52;102980.31;5305418;28;20359;-76
2022/04/28 07:53:26;;;;;;;14.32;7.18;;;;;;;21.19;44.88;102985.91;5304806;28;20365;-77
2022/04/28 07:56:18;;;;;;;13.50;6.43;;;;;;;21.59;41.29;102991.75;5304826;28;20032;-77
2022/04/28 07:58:49;;;;;;;13.90;7.10;;;;;;;21.45;41.31;102998.63;5304197;28;20020;-76
2022/04/28 08:01:21;;;;;;;11.52;6.63;;;;;;;22.23;40.64;102986.63;5305207;28;20017;-77
2022/04/28 08:03:52;;;;;;;9.38;5.93;;;;;;;21.65;38.95;102986.53;5305228;28;20370;-76
2022/04/28 08:06:23;;;;;;;12.20;6.40;;;;;;;22.09;39.08;102997.16;5305187;28;20438;-76
2022/04/28 08:08:54;;;;;;;11.20;6.40;;;;;;;22.73;38.89;102992.97;5304438;28;20120;-76
2022/04/28 08:11:26;;;;;;;11.77;6.47;;;;;;;23.55;35.92;102998.25;5305231;28;20013;-76
2022/04/28 08:13:57;;;;;;;20.20;7.30;;;;;;;24.00;35.34;103001.28;5302490;28;20272;-76
2022/04/28 08:16:28;;;;;;;8.90;5.63;;;;;;;23.41;35.75;102999.84;5305366;28;20294;-77
2022/04/28 08:19:01;;;;;;;11.85;6.65;;;;;;;24.73;33.65;102999.88;5304374;28;20025;-77
2022/04/28 08:21:32;;;;;;;9.35;5.75;;;;;;;25.59;32.55;103003.06;5288553;28;20014;-77
2022/04/28 08:24:04;;;;;;;9.70;5.33;;;;;;;25.70;30.63;103012.66;5288530;28;20474;-77
2022/04/28 08:26:35;;;;;;;9.95;6.18;;;;;;;26.10;30.31;103007.66;5304087;28;20328;-77
2022/04/28 08:29:06;;;;;;;10.52;6.00;;;;;;;25.92;30.29;103007.25;5304072;28;20024;-76
2022/04/28 08:31:43;;;;;;;10.50;6.25;;;;;;;25.36;31.16;103013.25;5304651;28;20017;-77
2022/04/28 08:34:17;;;;;;;15.68;6.07;;;;;;;25.40;30.94;103011.84;5304438;28;20024;-77
2022/04/28 08:36:50;;;;;;;14.15;6.45;;;;;;;25.98;29.98;103010.09;5304793;28;20032;-77
2022/04/28 08:39:21;;;;;;;11.32;5.22;;;;;;;26.84;29.10;103013.84;5304091;28;20025;-77
2022/04/28 08:41:55;;;;;;;11.57;5.65;;;;;;;27.04;28.17;103011.25;5303880;28;20346;-77
2022/04/28 08:44:27;;;;;;;13.60;5.78;;;;;;;27.84;27.10;103003.44;5301565;28;20024;-77
2022/04/28 08:46:59;;;;;;;11.75;5.45;;;;;;;26.63;28.21;103010.13;5303919;28;20371;-77
2022/04/28 08:49:32;;;;;;;15.40;5.50;;;;;;;28.41;26.88;103006.75;5303942;28;20028;-77
2022/04/28 08:52:06;;;;;;;15.30;6.20;;;;;;;27.17;26.82;103011.31;5304096;28;20166;-77
2022/04/28 08:54:39;;;;;;;13.25;6.03;;;;;;;28.97;25.84;103006.31;5302011;28;20060;-77
2022/04/28 08:57:13;;;;;;;15.20;6.63;;;;;;;29.52;25.95;103008.72;5303407;28;20462;-77
2022/04/28 08:59:45;;;;;;;12.63;5.68;;;;;;;28.59;26.44;103017.97;5302333;28;20137;-77
2022/04/28 09:02:22;;;;;;;16.70;6.38;;;;;;;31.04;25.01;103004.31;5303828;28;20020;-77
2022/04/28 09:05:02;;;;;;;14.93;5.88;;;;;;;30.85;25.35;103001.50;5303183;28;20389;-76
2022/04/28 09:07:35;;;;;;;12.43;5.88;;;;;;;30.42;24.45;103010.59;5302707;28;20021;-76
2022/04/28 09:10:25;;;;;;;11.15;5.57;;;;;;;31.43;23.94;103011.28;5303777;28;20151;-76
2022/04/28 09:15:56;;;;;;;7.85;5.60;;;;;;;30.99;22.99;103006.91;5303945;28;20033;-77
2022/04/28 09:18:27;;;;;;;9.57;5.80;;;;;;;31.28;22.59;103008.09;5281429;28;20021;-76
2022/04/28 09:20:59;;;;;;;16.88;6.55;;;;;;;31.04;23.53;103001.56;5281411;28;20075;-77
2022/04/28 09:23:30;;;;;;;10.77;5.70;;;;;;;31.57;22.07;103000.94;5283025;28;20370;-76
2022/04/28 09:26:02;;;;;;;13.18;5.72;;;;;;;30.86;21.98;103005.94;5303314;28;20048;-76
2022/04/28 09:28:33;;;;;;;11.07;6.50;;;;;;;31.00;22.44;103003.09;5303041;28;20456;-76
2022/04/28 09:31:08;;;;;;;11.63;6.45;;;;;;;32.02;22.67;102992.25;5303695;28;20301;-76
2022/04/28 09:33:41;;;;;;;11.60;5.75;;;;;;;31.27;21.56;102996.19;5303357;28;20452;-76
2022/04/28 09:36:13;;;;;;;9.73;5.72;;;;;;;32.53;20.52;102992.72;5303688;28;20095;-76
2022/04/28 09:38:45;;;;;;;11.77;6.13;;;;;;;33.07;20.00;102989.84;5318762;28;20029;-76
2022/04/28 09:44:08;;;;;;;10.30;5.45;;;;;;;32.49;20.54;102993.47;5300966;28;20040;-77
2022/04/28 09:46:41;;;;;;;11.45;5.63;;;;;;;32.30;21.03;102995.47;5301649;28;20437;-76
2022/04/28 09:49:17;;;;;;;16.00;6.05;;;;;;;32.13;20.79;102992.56;5300810;28;20032;-77
2022/04/28 09:51:57;;;;;;;;;;;;;;;36.44;18.70;102987.97;5303672;28;20059;-76
2022/04/28 09:54:35;;;;;;;7.38;5.15;;;;;;;33.75;19.52;102992.94;5306069;28;19999;-77
2022/04/28 09:57:08;;;;;;;9.55;4.47;;;;;;;33.64;19.08;102982.72;5306502;28;20036;-77
2022/04/28 09:59:39;;;;;;;8.43;4.97;;;;;;;33.59;19.24;102977.97;5306372;28;20057;-77
2022/04/28 10:02:15;;;;;;;11.43;5.43;;;;;;;33.30;19.76;102983.44;5306613;28;20083;-77
2022/04/28 10:04:48;;;;;;;11.80;4.93;;;;;;;33.74;19.24;102982.13;5306722;28;20055;-76
2022/04/28 10:07:20;;;;;;;13.15;5.40;;;;;;;34.24;18.70;102984.13;5306541;28;20458;-77
2022/04/28 10:09:52;;;;;;;11.50;4.85;;;;;;;34.83;18.05;102967.88;5306345;28;20020;-77
2022/04/28 10:12:28;;;;;;;10.48;5.05;;;;;;;34.93;17.76;102969.97;5306603;28;20090;-77
2022/04/28 10:15:00;;;;;;;10.43;4.70;;;;;;;34.55;17.96;102974.38;5306052;28;20110;-77
2022/04/28 10:17:48;;;;;;;7.85;4.93;;;;;;;36.24;17.85;102966.44;5307080;28;20016;-76
2022/04/28 10:20:33;;;;;;;13.57;5.70;;;;;;;35.21;17.81;102968.97;5300075;28;20025;-77
2022/04/28 10:23:08;;;;;;;8.40;4.80;;;;;;;35.35;17.58;102966.66;5293989;28;20036;-77
2022/04/28 10:35:07;;;;;;;10.90;5.32;;;;;;;35.34;18.07;102958.56;5231696;28;20035;-77
2022/04/28 10:37:45;;;;;;;9.73;4.93;;;;;;;34.90;18.19;102964.94;5219767;28;20042;-77
2022/04/28 10:40:21;;;;;;;8.05;4.70;;;;;;;36.50;17.18;102954.41;5265040;28;20033;-77
2022/04/28 10:42:56;;;;;;;13.40;5.15;;;;;;;35.25;18.07;102949.06;5299188;28;20494;-77
2022/04/28 10:45:37;;;;;;;9.10;5.25;;;;;;;36.40;17.31;102951.56;5298700;28;20033;-77
2022/04/28 10:48:24;;;;;;;10.43;5.15;;;;;;;36.97;16.62;102957.47;5305409;28;20035;-77
2022/04/28 10:51:06;;;;;;;11.00;4.95;;;;;;;37.96;16.13;102954.69;5304710;28;20114;-77
2022/04/28 10:54:00;;;;;;;9.27;4.82;;;;;;;37.31;17.08;102940.34;5299653;28;20570;-77
2022/04/28 10:56:56;;;;;;;7.40;4.72;;;;;;;38.12;16.65;102952.75;5291899;28;20025;-77
2022/04/28 10:59:37;;;;;;;8.57;4.82;;;;;;;36.58;16.48;102946.66;5304851;28;20363;-77
2022/04/28 11:02:11;;;;;;;13.43;4.07;;;;;;;37.42;16.34;102940.09;5305162;28;20414;-77
2022/04/28 11:04:52;;;;;;;8.80;4.95;;;;;;;37.07;16.51;102936.09;5304994;28;20024;-77
2022/04/28 11:07:28;;;;;;;10.55;5.07;;;;;;;37.47;15.97;102937.34;5305130;28;20070;-77
2022/04/28 11:10:07;;;;;;;10.43;5.05;;;;;;;36.62;17.26;102933.91;5304336;28;20063;-77
2022/04/28 11:12:41;;;;;;;9.98;5.43;;;;;;;37.06;15.63;102936.34;5303396;28;20115;-77
2022/04/28 11:15:14;;;;;;;7.40;4.85;;;;;;;37.10;15.78;102931.94;5304902;28;20024;-77
2022/04/28 11:17:45;;;;;;;14.43;5.40;;;;;;;36.84;16.14;102931.81;5304053;28;20020;-77
2022/04/28 11:20:20;;;;;;;9.88;4.93;;;;;;;38.30;15.19;102938.22;5305337;28;20046;-77
2022/04/28 11:22:52;;;;;;;10.18;4.30;;;;;;;39.08;15.06;102928.56;5304867;28;20454;-77
2022/04/28 11:25:23;;;;;;;10.57;5.07;;;;;;;38.23;15.55;102931.28;5305751;28;20017;-77
2022/04/28 11:27:56;;;;;;;12.05;5.30;;;;;;;37.58;15.75;102923.44;5302884;28;20056;-78
2022/04/28 11:30:28;;;;;;;11.45;5.55;;;;;;;36.96;16.45;102912.13;5304909;28;20154;-77
2022/04/28 11:32:59;;;;;;;8.32;5.10;;;;;;;38.90;14.66;102921.59;5304550;28;20099;-77
2022/04/28 11:35:35;;;;;;;7.37;5.30;;;;;;;39.08;14.63;102916.53;5304359;28;20028;-77
2022/04/28 11:38:07;;;;;;;11.13;5.70;;;;;;;37.77;14.68;102919.03;5302750;28;20275;-77
2022/04/28 11:40:39;;;;;;;11.00;5.82;;;;;;;36.82;15.83;102913.75;5305456;28;20029;-77
2022/04/28 11:43:10;;;;;;;12.00;6.47;;;;;;;37.12;16.04;102915.81;5282999;28;20041;-77
2022/04/28 11:45:42;;;;;;;9.40;6.00;;;;;;;37.31;15.62;102912.53;5299748;28;20374;-77
2022/04/28 11:48:13;;;;;;;10.85;6.15;;;;;;;36.99;16.01;102919.09;5299664;28;20352;-77
2022/04/28 11:50:44;;;;;;;9.63;6.10;;;;;;;37.03;15.38;102920.22;5304786;28;20764;-77
2022/04/28 11:53:16;;;;;;;15.88;6.10;;;;;;;37.42;15.66;102923.41;5303991;28;20017;-77
2022/04/28 11:55:50;;;;;;;10.45;5.78;;;;;;;38.03;15.47;102919.03;5304498;28;20029;-77
2022/04/28 11:58:22;;;;;;;11.83;6.17;;;;;;;38.23;14.86;102920.97;5302489;28;20086;-77
2022/04/28 12:00:56;;;;;;;14.00;6.07;;;;;;;37.56;16.05;102914.53;5305350;28;20024;-77
2022/04/28 12:03:30;;;;;;;12.73;5.70;;;;;;;37.39;15.76;102910.03;5303260;28;42937;-77
2022/04/28 12:06:01;;;;;;;21.20;6.47;;;;;;;36.62;16.51;102909.72;5304225;28;20546;-77
2022/04/28 12:08:33;;;;;;;11.43;5.68;;;;;;;37.08;15.72;102906.31;5304470;28;20111;-77
2022/04/28 12:20:01;;;;;;;10.50;5.50;;;;;;;39.24;15.33;102904.19;5305384;28;20029;-77